createdAt,value
2018-05-09T00:01:37.675Z,3.73
2018-05-09T00:04:05.922Z,3.97
2018-05-09T00:06:34.152Z,4.10
2018-05-09T00:09:03.150Z,4.00
2018-05-09T00:11:32.143Z,4.37
2018-05-09T00:14:01.146Z,4.20
2018-05-09T00:16:30.163Z,4.47
2018-05-09T00:18:58.412Z,4.00
2018-05-09T00:21:27.426Z,4.23
2018-05-09T00:23:55.645Z,4.17
2018-05-09T00:26:23.910Z,4.30
2018-05-09T00:28:52.134Z,3.90
2018-05-09T00:31:21.129Z,4.20
2018-05-09T00:33:50.128Z,4.07
2018-05-09T00:36:18.361Z,4.10
2018-05-09T00:38:46.610Z,3.90
2018-05-09T00:41:14.866Z,3.73
2018-05-09T00:43:43.178Z,4.37
2018-05-09T00:46:11.437Z,3.97
2018-05-09T00:48:39.706Z,4.10
2018-05-09T00:51:07.971Z,3.93
2018-05-09T00:53:36.251Z,3.67
2018-05-09T00:56:04.526Z,3.87
2018-05-09T00:58:32.809Z,4.20
2018-05-09T01:01:01.066Z,4.30
2018-05-09T01:03:30.122Z,3.80
2018-05-09T01:05:58.370Z,3.90
2018-05-09T01:08:26.681Z,4.07
2018-05-09T01:10:54.915Z,3.97
2018-05-09T01:13:23.146Z,3.93
2018-05-09T01:15:52.131Z,3.90
2018-05-09T01:18:20.382Z,4.20
2018-05-09T01:20:48.627Z,4.10
2018-05-09T01:23:16.911Z,4.30
2018-05-09T01:25:45.183Z,4.07
2018-05-09T01:28:13.438Z,4.50
2018-05-09T01:30:42.429Z,4.23
2018-05-09T01:33:11.444Z,4.40
2018-05-09T01:35:39.707Z,4.47
2018-05-09T01:38:07.943Z,4.30
2018-05-09T01:40:36.257Z,4.50
2018-05-09T01:43:04.575Z,4.47
2018-05-09T01:45:32.812Z,4.70
2018-05-09T01:48:01.131Z,4.90
2018-05-09T01:50:29.360Z,4.57
2018-05-09T01:52:58.352Z,4.80
2018-05-09T01:55:27.364Z,4.70
2018-05-09T01:57:55.612Z,4.37
2018-05-09T02:00:24.665Z,4.47
2018-05-09T02:02:52.892Z,4.80
2018-05-09T02:05:21.902Z,4.87
2018-05-09T02:07:50.116Z,4.77
2018-05-09T02:10:18.345Z,5.07
2018-05-09T02:12:47.335Z,4.70
2018-05-09T02:15:16.354Z,4.83
2018-05-09T02:17:44.609Z,5.00
2018-05-09T02:20:12.880Z,4.33
2018-05-09T02:22:41.916Z,4.50
2018-05-09T02:25:10.190Z,4.37
2018-05-09T02:27:38.506Z,4.43
2018-05-09T02:30:06.789Z,4.73
2018-05-09T02:32:35.857Z,4.77
2018-05-09T02:35:04.118Z,4.57
2018-05-09T02:37:32.367Z,5.10
2018-05-09T02:40:00.640Z,4.90
2018-05-09T02:42:28.954Z,5.07
2018-05-09T02:44:57.967Z,4.93
2018-05-09T02:47:26.278Z,5.10
2018-05-09T02:49:55.334Z,5.07
2018-05-09T02:52:23.568Z,5.17
2018-05-09T02:54:51.835Z,5.10
2018-05-09T02:57:20.096Z,4.67
2018-05-09T02:59:49.103Z,4.93
2018-05-09T03:02:17.348Z,4.97
2018-05-09T03:04:45.608Z,5.03
2018-05-09T03:07:13.802Z,4.80
2018-05-09T03:09:42.135Z,5.10
2018-05-09T03:12:10.366Z,4.77
2018-05-09T03:14:39.391Z,4.53
2018-05-09T03:17:07.655Z,5.00
2018-05-09T03:19:35.947Z,5.07
2018-05-09T03:22:04.165Z,4.97
2018-05-09T03:24:32.408Z,5.30
2018-05-09T03:27:00.675Z,5.60
2018-05-09T03:29:28.906Z,4.63
2018-05-09T03:31:57.150Z,5.10
2018-05-09T03:34:25.435Z,6.00
2018-05-09T03:36:53.665Z,5.40
2018-05-09T03:39:22.026Z,5.57
2018-05-09T03:41:50.214Z,5.10
2018-05-09T03:44:18.491Z,5.47
2018-05-09T03:46:47.678Z,6.30
2018-05-09T03:49:16.731Z,5.77
2018-05-09T03:51:44.966Z,5.53
2018-05-09T03:54:13.233Z,5.87
2018-05-09T03:56:42.277Z,5.67
2018-05-09T03:59:11.262Z,5.83
2018-05-09T04:01:57.219Z,6.23
2018-05-09T04:04:43.293Z,5.57
2018-05-09T04:07:30.017Z,5.87
2018-05-09T04:09:59.022Z,5.57
2018-05-09T04:12:27.342Z,5.87
2018-05-09T04:14:55.729Z,5.50
2018-05-09T04:17:23.956Z,5.80
2018-05-09T04:19:52.195Z,5.77
2018-05-09T04:22:20.614Z,5.77
2018-05-09T04:24:48.877Z,5.47
2018-05-09T04:27:17.116Z,5.50
2018-05-09T04:29:45.366Z,6.00
2018-05-09T04:32:13.614Z,6.00
2018-05-09T04:34:41.873Z,6.00
2018-05-09T04:37:10.952Z,6.40
2018-05-09T04:39:39.276Z,6.67
2018-05-09T04:42:07.550Z,6.37
2018-05-09T04:44:35.804Z,6.87
2018-05-09T04:47:04.076Z,6.60
2018-05-09T04:49:33.084Z,6.77
2018-05-09T04:52:01.298Z,6.60
2018-05-09T04:54:29.528Z,6.63
2018-05-09T04:56:58.619Z,6.17
2018-05-09T04:59:26.922Z,6.93
2018-05-09T05:01:55.267Z,6.50
2018-05-09T05:04:24.347Z,7.07
2018-05-09T05:06:52.590Z,8.10
2018-05-09T05:09:20.838Z,7.03
2018-05-09T05:11:49.155Z,7.53
2018-05-09T05:14:17.422Z,7.63
2018-05-09T05:16:45.697Z,7.23
2018-05-09T05:19:13.970Z,7.10
2018-05-09T05:21:42.230Z,7.67
2018-05-09T05:24:10.490Z,7.43
2018-05-09T05:26:38.780Z,7.50
2018-05-09T05:29:07.091Z,7.17
2018-05-09T05:31:35.331Z,8.00
2018-05-09T05:34:03.603Z,7.53
2018-05-09T05:36:31.911Z,7.60
2018-05-09T05:39:00.184Z,8.13
2018-05-09T05:41:28.458Z,7.80
2018-05-09T05:43:56.746Z,8.47
2018-05-09T05:46:25.109Z,7.77
2018-05-09T05:48:53.366Z,7.37
2018-05-09T05:51:21.651Z,8.03
2018-05-09T05:53:49.996Z,7.47
2018-05-09T05:56:19.011Z,7.70
2018-05-09T05:58:47.269Z,7.67
2018-05-09T06:01:16.313Z,7.47
2018-05-09T06:03:44.596Z,7.47
2018-05-09T06:06:12.897Z,8.63
2018-05-09T06:08:41.181Z,7.93
2018-05-09T06:11:09.465Z,8.03
2018-05-09T06:13:38.524Z,7.70
2018-05-09T06:16:06.837Z,7.40
2018-05-09T06:18:35.881Z,7.67
2018-05-09T06:21:04.177Z,6.53
2018-05-09T06:23:32.430Z,7.10
2018-05-09T06:26:00.709Z,7.53
2018-05-09T06:28:29.049Z,7.53
2018-05-09T06:30:58.087Z,7.07
2018-05-09T06:33:26.443Z,6.70
2018-05-09T06:35:54.720Z,6.53
2018-05-09T06:38:23.008Z,7.27
2018-05-09T06:40:51.328Z,7.00
2018-05-09T06:43:19.633Z,7.63
2018-05-09T06:45:48.664Z,6.53
2018-05-09T06:48:16.990Z,7.23
2018-05-09T06:50:45.257Z,7.00
2018-05-09T06:53:13.527Z,6.70
2018-05-09T06:55:41.906Z,7.00
2018-05-09T06:58:10.190Z,7.13
2018-05-09T07:00:38.534Z,7.40
2018-05-09T07:03:06.855Z,6.80
2018-05-09T07:05:35.912Z,6.33
2018-05-09T07:08:04.295Z,6.83
2018-05-09T07:10:32.590Z,7.43
2018-05-09T07:13:00.911Z,7.00
2018-05-09T07:15:29.233Z,7.27
2018-05-09T07:17:57.490Z,6.50
2018-05-09T07:20:25.794Z,7.00
2018-05-09T07:22:54.120Z,6.30
2018-05-09T07:25:22.439Z,6.40
2018-05-09T07:27:50.735Z,6.00
2018-05-09T07:30:19.091Z,5.97
2018-05-09T07:32:47.427Z,5.87
2018-05-09T07:35:16.514Z,5.60
2018-05-09T07:37:45.608Z,5.90
2018-05-09T07:40:14.637Z,5.33
2018-05-09T07:42:42.899Z,5.20
2018-05-09T07:45:11.296Z,6.77
2018-05-09T07:47:39.636Z,5.10
2018-05-09T07:50:07.915Z,5.17
2018-05-09T07:52:36.972Z,5.50
2018-05-09T07:55:05.235Z,5.20
2018-05-09T07:57:33.570Z,5.77
2018-05-09T08:00:01.879Z,5.50
2018-05-09T08:02:30.168Z,5.43
2018-05-09T08:04:58.463Z,5.72
2018-05-09T08:07:26.746Z,6.53
2018-05-09T08:09:55.083Z,5.83
2018-05-09T08:12:23.385Z,5.53
2018-05-09T08:14:51.724Z,5.40
2018-05-09T08:17:20.033Z,5.35
2018-05-09T08:19:48.350Z,5.07
2018-05-09T08:22:18.284Z,5.72
2018-05-09T08:24:47.322Z,5.97
2018-05-09T08:27:15.617Z,5.70
2018-05-09T08:29:43.988Z,5.43
2018-05-09T08:32:12.280Z,5.50
2018-05-09T08:34:40.677Z,5.45
2018-05-09T08:37:09.800Z,5.97
2018-05-09T08:39:38.091Z,5.32
2018-05-09T08:42:06.372Z,5.28
2018-05-09T08:44:34.701Z,5.75
2018-05-09T08:47:03.843Z,4.68
2018-05-09T08:49:32.863Z,5.07
2018-05-09T08:52:01.170Z,4.78
2018-05-09T08:54:30.182Z,4.95
2018-05-09T08:56:59.228Z,4.62
2018-05-09T08:59:27.514Z,4.40
2018-05-09T09:01:55.830Z,5.18
2018-05-09T09:04:24.939Z,4.97
2018-05-09T09:06:53.205Z,4.22
2018-05-09T09:09:21.536Z,4.28
2018-05-09T09:11:49.853Z,5.05
2018-05-09T09:14:18.182Z,4.78
2018-05-09T09:16:46.498Z,4.15
2018-05-09T09:19:15.567Z,4.00
2018-05-09T09:21:43.898Z,4.68
2018-05-09T09:24:12.184Z,4.35
2018-05-09T09:26:40.528Z,4.53
2018-05-09T09:29:09.637Z,4.00
2018-05-09T09:31:37.966Z,4.72
2018-05-09T09:34:06.232Z,4.32
2018-05-09T09:36:34.501Z,3.92
2018-05-09T09:39:02.789Z,4.25
2018-05-09T09:41:31.166Z,3.97
2018-05-09T09:43:59.488Z,3.58
2018-05-09T09:46:28.529Z,3.80
2018-05-09T09:48:56.831Z,3.95
2018-05-09T09:51:25.176Z,3.47
2018-05-09T09:53:53.465Z,3.62
2018-05-09T09:56:21.829Z,3.08
2018-05-09T09:58:50.133Z,3.70
2018-05-09T10:01:18.408Z,2.95
2018-05-09T10:03:46.693Z,2.80
2018-05-09T10:06:14.996Z,3.20
2018-05-09T10:08:43.307Z,3.20
2018-05-09T10:11:11.666Z,3.20
2018-05-09T10:13:40.721Z,2.83
2018-05-09T10:16:09.025Z,3.35
2018-05-09T10:18:37.331Z,3.10
2018-05-09T10:21:05.595Z,3.03
2018-05-09T10:23:34.661Z,3.03
2018-05-09T10:26:02.973Z,2.70
2018-05-09T10:28:32.025Z,3.00
2018-05-09T10:31:00.337Z,3.17
2018-05-09T10:33:29.393Z,3.12
2018-05-09T10:35:57.754Z,2.83
2018-05-09T10:38:26.015Z,3.30
2018-05-09T10:40:54.338Z,3.42
2018-05-09T10:43:22.668Z,3.00
2018-05-09T10:45:51.035Z,3.20
2018-05-09T10:48:19.338Z,3.20
2018-05-09T10:50:47.772Z,3.20
2018-05-09T10:53:16.156Z,3.10
2018-05-09T10:55:45.212Z,3.37
2018-05-09T10:58:13.548Z,3.40
2018-05-09T11:00:41.806Z,3.75
2018-05-09T11:03:10.888Z,3.08
2018-05-09T11:05:39.181Z,3.25
2018-05-09T11:08:08.343Z,3.40
2018-05-09T11:10:36.690Z,3.12
2018-05-09T11:13:05.050Z,3.37
2018-05-09T11:15:33.332Z,3.33
2018-05-09T11:18:01.684Z,3.28
2018-05-09T11:20:30.836Z,3.60
2018-05-09T11:22:59.080Z,3.47
2018-05-09T11:25:27.400Z,2.90
2018-05-09T11:27:55.684Z,3.50
2018-05-09T11:30:23.964Z,3.78
2018-05-09T11:32:52.271Z,3.42
2018-05-09T11:35:21.372Z,3.65
2018-05-09T11:37:50.420Z,3.35
2018-05-09T11:40:18.771Z,3.10
2018-05-09T11:42:47.073Z,3.42
2018-05-09T11:45:15.371Z,2.95
2018-05-09T11:47:43.733Z,3.40
2018-05-09T11:50:12.107Z,3.08
2018-05-09T11:52:40.452Z,3.40
2018-05-09T11:55:08.773Z,3.78
2018-05-09T11:57:37.103Z,3.53
2018-05-09T12:00:05.398Z,4.18
2018-05-09T12:02:33.785Z,3.50
2018-05-09T12:05:02.080Z,3.87
2018-05-09T12:07:30.411Z,3.58
2018-05-09T12:09:58.793Z,3.42
2018-05-09T12:12:27.105Z,3.58
2018-05-09T12:14:55.508Z,4.05
2018-05-09T12:17:23.793Z,3.83
2018-05-09T12:19:52.082Z,3.33
2018-05-09T12:22:21.199Z,3.60
2018-05-09T12:24:49.527Z,4.00
2018-05-09T12:27:17.875Z,4.25
2018-05-09T12:29:46.212Z,4.43
2018-05-09T12:32:15.281Z,3.87
2018-05-09T12:34:43.581Z,4.00
2018-05-09T12:37:12.648Z,4.55
2018-05-09T12:39:40.946Z,4.45
2018-05-09T12:42:09.250Z,3.95
2018-05-09T12:44:38.305Z,3.92
2018-05-09T12:47:06.606Z,4.10
2018-05-09T12:49:35.673Z,4.68
2018-05-09T12:52:03.980Z,4.00
2018-05-09T12:54:33.064Z,4.20
2018-05-09T12:57:01.394Z,3.97
2018-05-09T12:59:29.735Z,4.03
2018-05-09T13:01:58.842Z,3.72
2018-05-09T13:04:27.889Z,4.32
2018-05-09T13:06:56.211Z,3.62
2018-05-09T13:09:25.292Z,3.92
2018-05-09T13:11:54.320Z,4.22
2018-05-09T13:14:22.638Z,3.75
2018-05-09T13:16:50.911Z,3.97
2018-05-09T13:19:19.258Z,4.10
2018-05-09T13:21:47.555Z,3.42
2018-05-09T13:24:15.893Z,3.95
2018-05-09T13:26:44.183Z,3.30
2018-05-09T13:29:12.477Z,3.50
2018-05-09T13:31:40.769Z,3.42
2018-05-09T13:34:09.047Z,3.60
2018-05-09T13:36:37.352Z,3.65
2018-05-09T13:39:05.687Z,3.78
2018-05-09T13:41:33.950Z,2.90
2018-05-09T13:44:02.289Z,3.17
2018-05-09T13:46:31.380Z,3.40
2018-05-09T13:49:00.660Z,3.72
2018-05-09T13:51:28.907Z,3.33
2018-05-09T13:53:57.286Z,3.35
2018-05-09T13:56:25.558Z,3.17
2018-05-09T13:58:53.956Z,3.42
2018-05-09T14:01:22.291Z,3.45
2018-05-09T14:03:51.421Z,3.75
2018-05-09T14:06:19.734Z,3.40
2018-05-09T14:08:48.033Z,3.67
2018-05-09T14:11:17.112Z,3.28
2018-05-09T14:13:45.430Z,3.20
2018-05-09T14:16:13.728Z,3.53
2018-05-09T14:18:42.031Z,3.58
2018-05-09T14:21:10.328Z,3.58
2018-05-09T14:23:38.654Z,3.50
2018-05-09T14:26:06.953Z,2.90
2018-05-09T14:28:35.294Z,2.95
2018-05-09T14:31:03.577Z,2.78
2018-05-09T14:33:31.847Z,3.03
2018-05-09T14:36:00.132Z,3.17
2018-05-09T14:38:28.499Z,3.12
2018-05-09T14:40:56.745Z,2.65
2018-05-09T14:43:25.045Z,3.50
2018-05-09T14:45:54.068Z,3.50
2018-05-09T14:48:22.305Z,3.22
2018-05-09T14:50:51.284Z,3.15
2018-05-09T14:53:21.823Z,3.30
2018-05-09T14:55:50.205Z,2.90
2018-05-09T14:58:19.197Z,3.15
2018-05-09T15:00:48.219Z,2.72
2018-05-09T15:03:16.484Z,3.22
2018-05-09T15:05:44.738Z,2.95
2018-05-09T15:08:12.993Z,2.85
2018-05-09T15:10:41.267Z,3.03
2018-05-09T15:13:09.512Z,3.25
2018-05-09T15:15:37.781Z,2.95
2018-05-09T15:18:06.024Z,3.30
2018-05-09T15:20:35.028Z,2.97
2018-05-09T15:23:04.049Z,3.22
2018-05-09T15:25:32.350Z,3.00
2018-05-09T15:28:01.341Z,3.20
2018-05-09T15:30:29.610Z,2.90
2018-05-09T15:32:57.851Z,2.90
2018-05-09T15:35:26.107Z,3.30
2018-05-09T15:37:55.238Z,3.03
2018-05-09T15:40:23.426Z,3.30
2018-05-09T15:42:51.675Z,3.47
2018-05-09T15:45:19.937Z,3.10
2018-05-09T15:47:48.951Z,3.05
2018-05-09T15:50:17.991Z,3.03
2018-05-09T15:52:46.240Z,2.95
2018-05-09T15:55:14.512Z,3.12
2018-05-09T15:57:42.873Z,2.70
2018-05-09T16:00:11.118Z,2.80
2018-05-09T16:02:39.375Z,3.20
2018-05-09T16:05:07.629Z,3.42
2018-05-09T16:07:35.879Z,3.35
2018-05-09T16:10:04.133Z,3.58
2018-05-09T16:12:33.203Z,3.87
2018-05-09T16:15:01.494Z,3.47
2018-05-09T16:17:29.781Z,2.85
2018-05-09T16:19:58.783Z,3.45
2018-05-09T16:22:28.019Z,4.10
2018-05-09T16:24:56.237Z,3.47
2018-05-09T16:27:24.481Z,2.95
2018-05-09T16:29:52.740Z,3.85
2018-05-09T16:32:21.013Z,3.37
2018-05-09T16:34:49.347Z,3.22
2018-05-09T16:37:17.629Z,2.87
2018-05-09T16:39:45.870Z,3.15
2018-05-09T16:42:14.126Z,3.08
2018-05-09T16:44:42.390Z,3.22
2018-05-09T16:47:10.629Z,3.50
2018-05-09T16:49:38.938Z,3.20
2018-05-09T16:52:07.205Z,3.20
2018-05-09T16:54:36.209Z,3.10
2018-05-09T16:57:04.471Z,3.50
2018-05-09T16:59:33.499Z,3.12
2018-05-09T17:02:01.844Z,3.12
2018-05-09T17:04:30.078Z,3.05
2018-05-09T17:06:58.300Z,3.17
2018-05-09T17:09:27.368Z,3.22
2018-05-09T17:11:55.624Z,3.10
2018-05-09T17:14:23.893Z,3.30
2018-05-09T17:16:52.170Z,3.42
2018-05-09T17:19:21.295Z,2.83
2018-05-09T17:22:12.897Z,3.30
2018-05-09T17:24:41.230Z,3.12
2018-05-09T17:27:09.427Z,4.03
2018-05-09T17:29:37.663Z,3.50
2018-05-09T17:32:06.687Z,3.42
2018-05-09T17:34:34.923Z,3.40
2018-05-09T17:37:03.189Z,3.35
2018-05-09T17:39:31.474Z,2.85
2018-05-09T17:41:59.745Z,3.47
2018-05-09T17:44:27.985Z,3.15
2018-05-09T17:46:56.254Z,2.90
2018-05-09T17:49:24.486Z,3.12
2018-05-09T17:51:52.781Z,3.17
2018-05-09T17:54:21.861Z,2.90
2018-05-09T17:56:50.858Z,3.33
2018-05-09T17:59:19.873Z,3.60
2018-05-09T18:01:48.148Z,2.92
2018-05-09T18:04:16.392Z,3.30
2018-05-09T18:06:44.639Z,3.37
2018-05-09T18:09:12.895Z,3.42
2018-05-09T18:11:41.176Z,3.35
2018-05-09T18:14:10.182Z,3.20
2018-05-09T18:16:38.472Z,3.72
2018-05-09T18:19:06.710Z,3.50
2018-05-09T18:21:34.983Z,3.60
2018-05-09T18:24:03.268Z,3.50
2018-05-09T18:26:31.510Z,3.55
2018-05-09T18:29:00.550Z,3.62
2018-05-09T18:31:28.811Z,3.75
2018-05-09T18:33:57.050Z,3.70
2018-05-09T18:36:26.085Z,3.67
2018-05-09T18:38:54.339Z,3.47
2018-05-09T18:41:22.604Z,3.75
2018-05-09T18:44:05.215Z,4.07
2018-05-09T18:46:34.412Z,4.18
2018-05-09T18:49:03.660Z,3.80
2018-05-09T18:51:32.059Z,3.97
2018-05-09T18:54:01.513Z,4.20
2018-05-09T18:56:30.559Z,5.55
2018-05-09T18:58:58.846Z,4.32
2018-05-09T19:01:27.148Z,3.87
2018-05-09T19:03:56.156Z,3.70
2018-05-09T19:06:24.488Z,3.72
2018-05-09T19:08:57.014Z,4.15
2018-05-09T19:11:25.319Z,4.20
2018-05-09T19:13:53.585Z,4.62
2018-05-09T19:16:21.859Z,4.32
2018-05-09T19:18:50.160Z,4.60
2018-05-09T19:21:18.466Z,4.07
2018-05-09T19:23:46.742Z,4.45
2018-05-09T19:26:18.074Z,4.30
2018-05-09T19:28:46.439Z,4.75
2018-05-09T19:31:14.766Z,4.32
2018-05-09T19:33:43.935Z,4.15
2018-05-09T19:36:13.789Z,4.65
2018-05-09T19:38:42.310Z,4.57
2018-05-09T19:41:11.335Z,4.70
2018-05-09T19:43:39.742Z,5.07
2018-05-09T19:46:14.950Z,4.65
2018-05-09T19:48:44.134Z,4.35
2018-05-09T19:51:12.616Z,4.65
2018-05-09T19:53:48.303Z,5.12
2018-05-09T19:56:18.638Z,4.93
2018-05-09T19:58:48.884Z,5.40
2018-05-09T20:06:12.835Z,4.87
2018-05-09T20:08:48.281Z,4.93
2018-05-09T20:14:13.213Z,4.57
2018-05-09T20:16:47.744Z,4.60
2018-05-09T20:19:20.629Z,5.03
2018-05-09T20:21:53.829Z,5.05
2018-05-09T20:27:47.028Z,4.80
2018-05-09T20:30:35.314Z,5.20
2018-05-09T20:45:59.785Z,4.87
2018-05-09T20:48:28.006Z,5.37
2018-05-09T20:50:56.404Z,4.85
2018-05-09T20:53:24.661Z,5.85
2018-05-09T20:55:52.932Z,5.62
2018-05-09T20:58:21.199Z,5.57
2018-05-09T21:00:49.535Z,5.65
2018-05-09T21:03:17.809Z,5.63
2018-05-09T21:05:46.174Z,5.33
2018-05-09T21:08:14.458Z,5.13
2018-05-09T21:10:42.724Z,5.32
2018-05-09T21:13:11.106Z,5.40
2018-05-09T21:15:41.048Z,6.07
2018-05-09T21:18:09.233Z,6.00
2018-05-09T21:20:38.287Z,5.50
2018-05-09T21:23:06.594Z,5.50
2018-05-09T21:25:35.663Z,5.20
2018-05-09T21:28:04.019Z,5.90
2018-05-09T21:30:32.313Z,5.50
2018-05-09T21:33:00.538Z,5.63
2018-05-09T21:35:29.808Z,6.00
2018-05-09T21:37:58.045Z,5.70
2018-05-09T21:40:27.088Z,5.57
2018-05-09T21:42:56.134Z,5.77
2018-05-09T21:45:24.431Z,6.03
2018-05-09T21:47:52.695Z,6.10
2018-05-09T21:50:20.961Z,6.30
2018-05-09T21:52:49.233Z,6.40
2018-05-09T21:55:18.527Z,5.50
2018-05-09T22:00:21.873Z,5.50
2018-05-09T22:02:50.200Z,5.40
2018-05-09T22:05:18.527Z,6.10
2018-05-09T22:07:46.762Z,6.80
2018-05-09T22:10:14.997Z,6.43
2018-05-09T22:12:43.402Z,5.93
2018-05-09T22:15:15.474Z,6.03
2018-05-09T22:17:44.571Z,5.87
2018-05-09T22:20:13.735Z,5.30
2018-05-09T22:22:41.998Z,5.83
2018-05-09T22:25:14.818Z,5.80
2018-05-09T22:27:47.583Z,5.17
2018-05-09T22:30:19.549Z,6.07
2018-05-09T22:32:47.808Z,5.93
2018-05-09T22:35:18.741Z,6.40
2018-05-09T22:37:46.968Z,5.90
2018-05-09T22:40:18.547Z,6.30
2018-05-09T22:45:38.884Z,5.67
2018-05-09T22:48:08.644Z,6.13
2018-05-09T22:50:43.263Z,6.07
2018-05-09T22:53:25.256Z,6.33
2018-05-09T22:59:17.952Z,6.73
2018-05-09T23:01:48.907Z,6.23
2018-05-09T23:04:21.897Z,5.57
2018-05-09T23:06:58.816Z,5.73
2018-05-09T23:09:29.952Z,5.57
2018-05-09T23:12:13.889Z,5.73
2018-05-09T23:14:59.502Z,5.87
2018-05-09T23:17:44.195Z,5.57
2018-05-09T23:20:14.707Z,6.57
2018-05-09T23:22:48.739Z,6.40
2018-05-09T23:25:21.394Z,5.57
2018-05-09T23:27:56.491Z,6.07
2018-05-09T23:30:28.489Z,6.43
2018-05-09T23:35:34.905Z,6.73
2018-05-09T23:38:09.449Z,6.60
2018-05-09T23:40:46.383Z,6.33
2018-05-09T23:43:16.698Z,6.83
2018-05-09T23:45:49.788Z,5.63
2018-05-09T23:48:24.926Z,6.07
2018-05-09T23:50:56.496Z,6.27
2018-05-09T23:53:29.123Z,6.17
2018-05-09T23:55:57.423Z,6.53
2018-05-09T23:58:30.697Z,6.07
